Accueil
METAR-TAF:

METAR-TAF

Aéroports :

Aéroport international de Curaçao

Curaçao, Antilles néerlandaises

latitude: 12-12N, longitude: 068-58W, altitude: 9 m

Observation

Le bulletin a été fait il y a 1 heure et 12 minutes, à 08:00 UTC
Vent 13 kt de est/sud-est
Température 25°C
Humidité 79%
Pression 1014 hPa
Visibilité 10 km ou plus
Nuages fragmentés à une hauteur de 3300 ft

METAR: TNCC 230800Z AUTO 11013KT 9999 BKN033 25/21 Q1014

Heure: 05:12 (09:12 UTC)

Prévision

Le bulletin a été fait il y a 5 heures et 12 minutes, à 04:00 UTC
Prévision valable du 23 à 06 UTC au 24 à 06 UTC
Vent 13 kt de est avec des rafales jusqu'à 25 kt
Visibilité 10 km ou plus
Nuages épars à une hauteur de 1800 ft
Temporairement
du 23 à 08 UTC au 23 à 16 UTC
Nuages fragmentés à une hauteur de 1500 ft

TAF: TNCC 230400Z 2306/2406 10013G25KT 9999 SCT018 TEMPO 2308/2316 BKN015

Observations et prévisions météorologiques de plus de 4000 aéroports (messages METAR et TAF).

Les stations disponibles sont représentées par des disques jaunes et rouges sur la carte.

Passer la souris dessus pour voir le nom de la station.

Cliquer dessus pour voir les observations et prévisions météorologiques.

Pour changer de carte: cliquez sur les boutons verts avec une croix noire pour zoomer, sur le bouton vert avec un tiret pour effectuer un zoom arrière, ou sur les flèches vertes pour les cartes adjacentes.


METAR-TAF: